Time;durP1;ratioP1;P1;durP2;ratioP2;P2;SDS_P1;SDS_P2;PMS_P1;PMS_P2;Temp;Humidity;BMP_temperature;BMP_pressure;BME280_temperature;BME280_humidity;BME280_pressure;Samples;Min_cycle;Max_cycle;Signal;HPM_P1;HPM_P2
2023/03/15 00:01:40;;;;;;;6.00;1.73;;;;;;;-145.18;100.00;60484.78;5048637;28;20473;-66
2023/03/15 00:04:06;;;;;;;9.60;2.23;;;;;;;-145.18;100.00;60484.78;5042589;28;20041;-67
2023/03/15 00:06:33;;;;;;;8.67;1.80;;;;;;;-145.18;100.00;60484.78;5040891;28;20495;-66
2023/03/15 00:09:01;;;;;;;12.50;2.20;;;;;;;-145.18;100.00;60484.78;5040959;28;20496;-68
2023/03/15 00:11:29;;;;;;;7.33;1.77;;;;;;;-145.18;100.00;60484.78;5042153;28;20381;-66
2023/03/15 00:13:56;;;;;;;9.70;2.27;;;;;;;-145.18;100.00;60484.78;5044243;28;20036;-66
2023/03/15 00:16:25;;;;;;;8.50;2.40;;;;;;;-145.18;100.00;60484.78;5041943;28;20029;-66
2023/03/15 00:18:54;;;;;;;10.60;1.90;;;;;;;-145.18;100.00;60484.78;5039345;28;20104;-66
2023/03/15 00:21:20;;;;;;;12.87;2.67;;;;;;;-145.18;100.00;60484.78;5038472;28;20028;-66
2023/03/15 00:23:46;;;;;;;7.83;2.27;;;;;;;-145.18;100.00;60484.78;5035555;28;20021;-65
2023/03/15 00:26:12;;;;;;;8.93;1.97;;;;;;;-145.18;100.00;60484.78;5040434;28;20075;-66
2023/03/15 00:28:38;;;;;;;6.67;1.60;;;;;;;-145.18;100.00;60484.78;5036961;28;20389;-66
2023/03/15 00:31:15;;;;;;;14.30;2.40;;;;;;;-145.18;100.00;60484.78;5036151;28;20045;-67
2023/03/15 00:33:41;;;;;;;11.53;1.90;;;;;;;-145.18;100.00;60484.78;5044839;28;20431;-67
2023/03/15 00:36:08;;;;;;;8.20;2.23;;;;;;;-145.18;100.00;60484.78;5041266;28;20345;-66
2023/03/15 00:38:34;;;;;;;9.30;1.90;;;;;;;-145.18;100.00;60484.78;5044826;28;20432;-66
2023/03/15 00:41:11;;;;;;;8.33;2.60;;;;;;;-145.18;100.00;60484.78;5036675;28;20049;-66
2023/03/15 00:43:36;;;;;;;11.60;2.00;;;;;;;-145.18;100.00;60484.78;5041905;28;20103;-66
2023/03/15 00:46:02;;;;;;;12.60;2.00;;;;;;;-145.18;100.00;60484.78;5034596;28;20030;-66
2023/03/15 00:48:28;;;;;;;5.77;1.40;;;;;;;-145.18;100.00;60484.78;5035368;28;20034;-67
2023/03/15 00:51:15;;;;;;;10.17;2.30;;;;;;;-145.18;100.00;60484.78;5039573;28;20365;-66
2023/03/15 00:53:43;;;;;;;11.07;2.50;;;;;;;-145.18;100.00;60484.78;5039159;28;20492;-67
2023/03/15 00:56:11;;;;;;;10.60;2.10;;;;;;;-145.18;100.00;60484.78;5042892;28;20087;-66
2023/03/15 00:58:37;;;;;;;6.73;1.53;;;;;;;-145.18;100.00;60484.78;5042049;28;20055;-70
2023/03/15 01:01:11;;;;;;;9.77;1.90;;;;;;;-145.18;100.00;60484.78;5049485;28;20366;-65
2023/03/15 01:03:37;;;;;;;6.60;1.80;;;;;;;-145.18;100.00;60484.78;5044695;28;20496;-66
2023/03/15 01:06:31;;;;;;;8.30;1.80;;;;;;;-145.18;100.00;60484.78;5041776;28;20025;-66
2023/03/15 01:08:57;;;;;;;12.70;2.10;;;;;;;-145.18;100.00;60484.78;5038736;28;20060;-66
2023/03/15 01:11:25;;;;;;;11.40;2.20;;;;;;;-145.18;100.00;60484.78;5033333;28;20057;-66
2023/03/15 01:13:52;;;;;;;7.43;1.90;;;;;;;-145.18;100.00;60484.78;5045220;28;20041;-67
2023/03/15 01:16:17;;;;;;;9.23;1.97;;;;;;;-145.18;100.00;60484.78;5036581;28;20056;-65
2023/03/15 01:18:43;;;;;;;10.70;1.80;;;;;;;-145.18;100.00;60484.78;5037026;28;20037;-66
2023/03/15 01:21:11;;;;;;;7.17;1.90;;;;;;;-145.18;100.00;60484.78;5038172;28;20096;-66
2023/03/15 01:23:36;;;;;;;9.50;1.90;;;;;;;-145.18;100.00;60484.78;5039776;28;20033;-67
2023/03/15 01:26:03;;;;;;;8.87;1.97;;;;;;;-145.18;100.00;60484.78;5040697;28;20067;-66
2023/03/15 01:28:29;;;;;;;12.03;2.80;;;;;;;-145.18;100.00;60484.78;5039923;28;20037;-66
2023/03/15 01:30:55;;;;;;;7.33;1.60;;;;;;;-145.18;100.00;60484.78;5043127;28;20044;-68
2023/03/15 01:33:20;;;;;;;8.37;2.00;;;;;;;-145.18;100.00;60484.78;5041326;28;20032;-65
2023/03/15 01:35:46;;;;;;;8.93;2.07;;;;;;;-145.18;100.00;60484.78;5032017;28;20120;-66
2023/03/15 01:38:12;;;;;;;5.50;1.50;;;;;;;-145.18;100.00;60484.78;5035308;28;20033;-67
2023/03/15 01:40:42;;;;;;;6.57;2.10;;;;;;;-145.18;100.00;60484.78;5039310;28;20071;-65
2023/03/15 01:43:07;;;;;;;8.73;2.30;;;;;;;-145.18;100.00;60484.78;5033950;28;20174;-65
2023/03/15 01:46:00;;;;;;;6.93;2.20;;;;;;;-145.18;100.00;60484.78;5037470;28;20033;-65
2023/03/15 01:48:50;;;;;;;9.70;2.83;;;;;;;-145.18;100.00;60484.78;5035925;28;20044;-66
2023/03/15 01:51:18;;;;;;;7.77;3.17;;;;;;;-145.18;100.00;60484.78;5044077;28;20068;-66
2023/03/15 01:53:52;;;;;;;8.53;2.07;;;;;;;-145.18;100.00;60484.78;5038618;28;20041;-65
2023/03/15 01:56:18;;;;;;;7.73;2.70;;;;;;;-145.18;100.00;60484.78;5037647;28;20078;-65
2023/03/15 01:58:45;;;;;;;10.37;2.87;;;;;;;-145.18;100.00;60484.78;5043847;28;20029;-65
2023/03/15 02:01:13;;;;;;;8.87;2.73;;;;;;;-145.18;100.00;60484.78;5039521;28;20032;-66
2023/03/15 02:03:45;;;;;;;9.70;3.50;;;;;;;-145.18;100.00;60484.78;5036802;28;20025;-66
2023/03/15 02:06:22;;;;;;;6.70;2.67;;;;;;;-145.18;100.00;60484.78;5041810;28;20484;-65
2023/03/15 02:09:08;;;;;;;8.57;2.70;;;;;;;-145.18;100.00;60484.78;5036819;28;20021;-65
2023/03/15 02:11:34;;;;;;;10.77;3.70;;;;;;;-145.18;100.00;60484.78;5036254;28;20025;-66
2023/03/15 02:14:01;;;;;;;7.07;2.77;;;;;;;-145.18;100.00;60484.78;5041452;28;20417;-65
2023/03/15 02:16:28;;;;;;;7.73;2.80;;;;;;;-145.18;100.00;60484.78;5040896;28;20485;-68
2023/03/15 02:18:53;;;;;;;9.53;4.27;;;;;;;-145.18;100.00;60484.78;5039858;28;20457;-66
2023/03/15 02:21:31;;;;;;;10.23;3.27;;;;;;;-145.18;100.00;60484.78;5041400;28;20033;-68
2023/03/15 02:24:14;;;;;;;8.23;3.10;;;;;;;-145.18;100.00;60484.78;5036215;28;20034;-67
2023/03/15 02:26:56;;;;;;;10.30;4.30;;;;;;;-145.18;100.00;60484.78;5035246;28;20555;-68
2023/03/15 02:29:24;;;;;;;11.00;4.17;;;;;;;-145.18;100.00;60484.78;5033359;28;20056;-67
2023/03/15 02:31:50;;;;;;;11.93;5.30;;;;;;;-145.18;100.00;60484.78;5031137;28;20071;-68
2023/03/15 02:34:16;;;;;;;12.77;4.67;;;;;;;-145.18;100.00;60484.78;5038185;28;21953;-68
2023/03/15 02:36:41;;;;;;;10.70;4.30;;;;;;;-145.18;100.00;60484.78;5042270;28;20556;-66
2023/03/15 02:39:18;;;;;;;12.17;4.70;;;;;;;-145.18;100.00;60484.78;5040217;28;20136;-67
2023/03/15 02:41:48;;;;;;;12.60;4.70;;;;;;;-145.18;100.00;60484.78;5031263;28;20037;-67
2023/03/15 02:44:38;;;;;;;10.23;4.50;;;;;;;-145.18;100.00;60484.78;5035928;28;20583;-67
2023/03/15 02:47:09;;;;;;;13.20;4.73;;;;;;;-145.18;100.00;60484.78;5042924;28;20044;-68
2023/03/15 02:49:39;;;;;;;8.20;3.87;;;;;;;-145.18;100.00;60484.78;5037076;28;20851;-67
2023/03/15 02:52:05;;;;;;;8.07;4.40;;;;;;;-145.18;100.00;60484.78;5040185;28;20025;-68
2023/03/15 02:54:33;;;;;;;13.77;5.77;;;;;;;-145.18;100.00;60484.78;5032323;28;20029;-67
2023/03/15 02:57:00;;;;;;;13.27;5.43;;;;;;;-145.18;100.00;60484.78;5041325;28;20392;-68
2023/03/15 02:59:26;;;;;;;15.27;5.53;;;;;;;-145.18;100.00;60484.78;5034803;28;20466;-68
2023/03/15 03:01:51;;;;;;;15.57;5.70;;;;;;;-145.18;100.00;60484.78;5036612;28;20075;-68
2023/03/15 03:04:16;;;;;;;9.87;5.07;;;;;;;-145.18;100.00;60484.78;5042517;28;20055;-68
2023/03/15 03:06:42;;;;;;;10.43;4.30;;;;;;;-145.18;100.00;60484.78;5039192;28;20032;-67
2023/03/15 03:09:09;;;;;;;16.20;5.27;;;;;;;-145.18;100.00;60484.78;5041188;28;20044;-68
2023/03/15 03:11:35;;;;;;;13.97;4.20;;;;;;;-145.18;100.00;60484.78;5041919;28;20036;-68
2023/03/15 03:14:00;;;;;;;11.80;4.13;;;;;;;-145.18;100.00;60484.78;5030320;28;20025;-67
2023/03/15 03:16:25;;;;;;;12.73;4.60;;;;;;;-145.18;100.00;60484.78;5041338;28;20034;-67
2023/03/15 03:18:51;;;;;;;14.30;5.27;;;;;;;-145.18;100.00;60484.78;5036452;28;20029;-68
2023/03/15 03:21:17;;;;;;;10.77;4.03;;;;;;;-145.18;100.00;60484.78;5045260;28;20029;-68
2023/03/15 03:23:45;;;;;;;11.37;4.43;;;;;;;-145.18;100.00;60484.78;5053222;28;20041;-67
2023/03/15 03:26:16;;;;;;;11.43;4.17;;;;;;;-145.18;100.00;60484.78;5063496;28;20009;-71
2023/03/15 03:28:43;;;;;;;12.73;4.72;;;;;;;-145.18;100.00;60484.78;5073659;28;20048;-71
2023/03/15 03:31:18;;;;;;;17.93;4.63;;;;;;;-145.18;100.00;60484.78;5067332;28;20013;-71
2023/03/15 03:33:44;;;;;;;10.33;4.30;;;;;;;-145.18;100.00;60484.78;5074587;28;20021;-69
2023/03/15 03:36:11;;;;;;;11.57;4.57;;;;;;;-145.18;100.00;60484.78;5070400;28;20092;-71
2023/03/15 03:38:41;;;;;;;8.87;3.03;;;;;;;-145.18;100.00;60484.78;5072608;28;20004;-70
2023/03/15 03:41:08;;;;;;;9.87;3.87;;;;;;;-145.18;100.00;60484.78;5048191;28;21303;-71
2023/03/15 03:43:34;;;;;;;10.83;3.90;;;;;;;-145.18;100.00;60484.78;5038248;28;20049;-71
2023/03/15 03:45:59;;;;;;;9.73;3.50;;;;;;;-145.18;100.00;60484.78;5038410;28;20516;-70
2023/03/15 03:48:25;;;;;;;13.00;4.47;;;;;;;-145.18;100.00;60484.78;5040120;28;20032;-72
2023/03/15 03:50:50;;;;;;;12.10;4.33;;;;;;;-145.18;100.00;60484.78;5051003;28;20021;-72
2023/03/15 03:53:16;;;;;;;16.63;5.03;;;;;;;-145.18;100.00;60484.78;5050475;28;20461;-71
2023/03/15 03:55:41;;;;;;;14.57;4.50;;;;;;;-145.18;100.00;60484.78;5039456;28;20022;-73
2023/03/15 03:58:08;;;;;;;14.27;4.73;;;;;;;-145.18;100.00;60484.78;5033241;28;20112;-72
2023/03/15 04:00:33;;;;;;;20.47;4.93;;;;;;;-145.18;100.00;60484.78;5035267;28;20063;-73
2023/03/15 04:03:00;;;;;;;15.23;4.50;;;;;;;-145.18;100.00;60484.78;5040063;28;20057;-72
2023/03/15 04:05:27;;;;;;;6.73;2.73;;;;;;;-145.18;100.00;60484.78;5038313;28;20052;-72
2023/03/15 04:07:52;;;;;;;13.10;4.67;;;;;;;-145.18;100.00;60484.78;5037556;28;20040;-73
2023/03/15 04:10:18;;;;;;;13.13;4.00;;;;;;;-145.18;100.00;60484.78;5040477;28;20473;-73
2023/03/15 04:12:44;;;;;;;7.90;3.50;;;;;;;-145.18;100.00;60484.78;5045928;28;20021;-73
2023/03/15 04:15:11;;;;;;;10.10;4.00;;;;;;;-145.18;100.00;60484.78;5044694;28;20061;-71
2023/03/15 04:17:38;;;;;;;10.27;3.73;;;;;;;-145.18;100.00;60484.78;5037400;28;20033;-73
2023/03/15 04:20:10;;;;;;;12.73;3.63;;;;;;;-145.18;100.00;60484.78;5036194;28;20051;-73
2023/03/15 04:22:37;;;;;;;11.17;2.50;;;;;;;-145.18;100.00;60484.78;5033092;28;20026;-73
2023/03/15 04:25:02;;;;;;;11.90;3.50;;;;;;;-145.18;100.00;60484.78;5040421;28;20029;-73
2023/03/15 04:27:29;;;;;;;8.80;3.10;;;;;;;-145.18;100.00;60484.78;5039839;28;20027;-73
2023/03/15 04:29:54;;;;;;;8.80;3.27;;;;;;;-145.18;100.00;60484.78;5037722;28;20489;-73
2023/03/15 04:32:19;;;;;;;10.90;3.23;;;;;;;-145.18;100.00;60484.78;5037978;28;20053;-72
2023/03/15 04:34:50;;;;;;;6.67;3.00;;;;;;;-145.18;100.00;60484.78;5033542;28;20496;-73
2023/03/15 04:37:18;;;;;;;10.10;3.27;;;;;;;-145.18;100.00;60484.78;5047474;28;20040;-73
2023/03/15 04:39:43;;;;;;;16.23;3.77;;;;;;;-145.18;100.00;60484.78;5036225;28;20504;-72
2023/03/15 04:42:09;;;;;;;8.40;3.23;;;;;;;-145.18;100.00;60484.78;5043270;28;20022;-73
2023/03/15 04:44:35;;;;;;;9.30;2.87;;;;;;;-145.18;100.00;60484.78;5035475;28;20067;-73
2023/03/15 04:47:00;;;;;;;10.67;2.60;;;;;;;-145.18;100.00;60484.78;5033826;28;20033;-73
2023/03/15 04:49:26;;;;;;;8.60;2.60;;;;;;;-145.18;100.00;60484.78;5036853;28;20024;-73
2023/03/15 04:51:51;;;;;;;11.70;2.90;;;;;;;-145.18;100.00;60484.78;5037377;28;20105;-73
2023/03/15 04:54:17;;;;;;;13.37;2.90;;;;;;;-145.18;100.00;60484.78;5034297;28;20033;-73
2023/03/15 04:56:42;;;;;;;9.47;3.43;;;;;;;-145.18;100.00;60484.78;5036127;28;20067;-72
2023/03/15 04:59:09;;;;;;;11.37;2.83;;;;;;;-145.18;100.00;60484.78;5045924;28;20091;-73
2023/03/15 05:01:35;;;;;;;9.57;2.63;;;;;;;-145.18;100.00;60484.78;5047648;28;20423;-73
2023/03/15 05:04:00;;;;;;;9.63;3.20;;;;;;;-145.18;100.00;60484.78;5044021;28;20029;-73
2023/03/15 05:06:27;;;;;;;6.73;2.70;;;;;;;-145.18;100.00;60484.78;5050654;28;20453;-73
2023/03/15 05:08:53;;;;;;;11.60;3.23;;;;;;;-145.18;100.00;60484.78;5036367;28;20381;-73
2023/03/15 05:11:19;;;;;;;13.63;3.30;;;;;;;-145.18;100.00;60484.78;5036290;28;20033;-73
2023/03/15 05:13:44;;;;;;;12.97;3.20;;;;;;;-145.18;100.00;60484.78;5037536;28;20036;-72
2023/03/15 05:16:09;;;;;;;11.27;3.40;;;;;;;-145.18;100.00;60484.78;5044278;28;20082;-72
2023/03/15 05:18:35;;;;;;;10.47;3.00;;;;;;;-145.18;100.00;60484.78;5041564;28;20029;-73
2023/03/15 05:21:00;;;;;;;13.60;3.33;;;;;;;-145.18;100.00;60484.78;5042053;28;20532;-73
2023/03/15 05:23:26;;;;;;;10.73;3.10;;;;;;;-145.18;100.00;60484.78;5033060;28;20105;-72
2023/03/15 05:25:52;;;;;;;12.77;3.23;;;;;;;-145.18;100.00;60484.78;5043484;28;20021;-73
2023/03/15 05:28:19;;;;;;;12.60;4.10;;;;;;;-145.18;100.00;60484.78;5039392;28;20473;-72
2023/03/15 05:30:45;;;;;;;10.27;3.57;;;;;;;-145.18;100.00;60484.78;5040537;28;20037;-73
2023/03/15 05:33:10;;;;;;;11.67;3.80;;;;;;;-145.18;100.00;60484.78;5046073;28;20079;-73
2023/03/15 05:35:36;;;;;;;15.67;4.40;;;;;;;-145.18;100.00;60484.78;5035848;28;20432;-73
2023/03/15 05:38:02;;;;;;;17.30;3.80;;;;;;;-145.18;100.00;60484.78;5045921;28;20484;-73
2023/03/15 05:40:29;;;;;;;10.80;3.60;;;;;;;-145.18;100.00;60484.78;5038502;28;20094;-73
2023/03/15 05:42:55;;;;;;;9.23;3.30;;;;;;;-145.18;100.00;60484.78;5050030;28;20121;-73
2023/03/15 05:45:21;;;;;;;12.67;3.17;;;;;;;-145.18;100.00;60484.78;5037155;28;20048;-73
2023/03/15 05:47:46;;;;;;;9.77;3.47;;;;;;;-145.18;100.00;60484.78;5038747;28;20130;-72
2023/03/15 05:50:11;;;;;;;13.63;4.03;;;;;;;-145.18;100.00;60484.78;5038977;28;20032;-73
2023/03/15 05:52:37;;;;;;;12.07;3.30;;;;;;;-145.18;100.00;60484.78;5036400;28;20024;-73
2023/03/15 05:55:02;;;;;;;13.03;3.10;;;;;;;-145.18;100.00;60484.78;5044640;28;20029;-73
2023/03/15 05:57:28;;;;;;;13.33;2.93;;;;;;;-145.18;100.00;60484.78;5039298;28;20022;-73
2023/03/15 05:59:54;;;;;;;11.53;3.30;;;;;;;-145.18;100.00;60484.78;5036387;28;20031;-73
2023/03/15 06:02:20;;;;;;;14.53;4.03;;;;;;;-145.18;100.00;60484.78;5038038;28;20017;-73
2023/03/15 06:04:45;;;;;;;12.93;3.20;;;;;;;-145.18;100.00;60484.78;5042014;28;21000;-72
2023/03/15 06:07:11;;;;;;;10.37;2.70;;;;;;;-145.18;100.00;60484.78;5041568;28;20017;-73
2023/03/15 06:09:36;;;;;;;12.60;3.13;;;;;;;-145.18;100.00;60484.78;5041090;28;20025;-73
2023/03/15 06:12:02;;;;;;;8.40;2.63;;;;;;;-145.18;100.00;60484.78;5039665;28;20025;-73
2023/03/15 06:14:27;;;;;;;10.40;3.10;;;;;;;-145.18;100.00;60484.78;5044729;28;20209;-73
2023/03/15 06:16:53;;;;;;;13.93;2.83;;;;;;;-145.18;100.00;60484.78;5046232;28;20029;-73
2023/03/15 06:19:19;;;;;;;12.40;2.90;;;;;;;-145.18;100.00;60484.78;5033674;28;20381;-73
2023/03/15 06:21:44;;;;;;;12.43;2.47;;;;;;;-145.18;100.00;60484.78;5035168;28;20033;-72
2023/03/15 06:24:10;;;;;;;6.67;2.50;;;;;;;-145.18;100.00;60484.78;5038128;28;20036;-73
2023/03/15 06:26:35;;;;;;;11.07;2.20;;;;;;;-145.18;100.00;60484.78;5033574;28;20449;-72
2023/03/15 06:29:00;;;;;;;12.03;2.47;;;;;;;-145.18;100.00;60484.78;5031136;28;20096;-73
2023/03/15 06:31:26;;;;;;;8.47;2.20;;;;;;;-145.18;100.00;60484.78;5034412;28;20115;-73
2023/03/15 06:33:51;;;;;;;9.23;2.50;;;;;;;-145.18;100.00;60484.78;5041946;28;20090;-73
2023/03/15 06:36:17;;;;;;;10.93;2.00;;;;;;;-145.18;100.00;60484.78;5043533;28;20489;-72
2023/03/15 06:38:42;;;;;;;7.33;2.07;;;;;;;-145.18;100.00;60484.78;5040100;28;20052;-72
2023/03/15 06:41:08;;;;;;;6.87;1.63;;;;;;;-145.18;100.00;60484.78;5032775;28;20029;-72
2023/03/15 06:43:34;;;;;;;13.77;2.13;;;;;;;-145.18;100.00;60484.78;5030673;28;20107;-73
2023/03/15 06:45:59;;;;;;;10.73;2.13;;;;;;;-145.18;100.00;60484.78;5031017;28;20465;-73
2023/03/15 06:48:26;;;;;;;12.17;2.40;;;;;;;-145.18;100.00;60484.78;5031093;28;20025;-72
2023/03/15 06:50:51;;;;;;;10.93;2.10;;;;;;;-145.18;100.00;60484.78;5034314;28;20020;-72
2023/03/15 06:53:17;;;;;;;13.70;1.77;;;;;;;-145.18;100.00;60484.78;5038107;28;20029;-71
2023/03/15 06:55:43;;;;;;;12.87;2.07;;;;;;;-145.18;100.00;60484.78;5034936;28;20026;-71
2023/03/15 06:58:08;;;;;;;8.83;2.10;;;;;;;-145.18;100.00;60484.78;5037656;28;20036;-71
2023/03/15 07:00:34;;;;;;;11.37;1.93;;;;;;;-145.18;100.00;60484.78;5037953;28;20393;-71
2023/03/15 07:02:59;;;;;;;9.67;2.60;;;;;;;-145.18;100.00;60484.78;5036816;28;20023;-71
2023/03/15 07:05:25;;;;;;;7.70;1.97;;;;;;;-145.18;100.00;60484.78;5042756;28;20406;-70
2023/03/15 07:07:50;;;;;;;11.13;1.70;;;;;;;-145.18;100.00;60484.78;5053541;28;20077;-71
2023/03/15 07:10:16;;;;;;;11.00;2.07;;;;;;;-145.18;100.00;60484.78;5052607;28;20036;-70
2023/03/15 07:12:41;;;;;;;10.47;1.90;;;;;;;-145.18;100.00;60484.78;5053291;28;20433;-70
2023/03/15 07:15:07;;;;;;;8.63;1.90;;;;;;;-145.18;100.00;60484.78;5053139;28;20436;-70
2023/03/15 07:17:33;;;;;;;13.30;2.30;;;;;;;-145.18;100.00;60484.78;5050967;28;20035;-71
2023/03/15 07:19:58;;;;;;;9.43;1.80;;;;;;;-145.18;100.00;60484.78;5050544;28;20017;-71
2023/03/15 07:22:25;;;;;;;11.93;1.80;;;;;;;-145.18;100.00;60484.78;5052905;28;20384;-71
2023/03/15 07:24:51;;;;;;;9.57;1.73;;;;;;;-145.18;100.00;60484.78;5052745;28;20021;-71
2023/03/15 07:27:16;;;;;;;9.23;1.67;;;;;;;-145.18;100.00;60484.78;5042973;28;20035;-70
2023/03/15 07:29:42;;;;;;;9.83;1.63;;;;;;;-145.18;100.00;60484.78;5034076;28;20083;-71
2023/03/15 07:32:07;;;;;;;7.10;1.40;;;;;;;-145.18;100.00;60484.78;5034109;28;20464;-71
2023/03/15 07:34:32;;;;;;;9.37;2.10;;;;;;;-145.18;100.00;60484.78;5034332;28;20034;-71
2023/03/15 07:36:58;;;;;;;11.20;2.33;;;;;;;-145.18;100.00;60484.78;5034113;28;20462;-71
2023/03/15 07:39:25;;;;;;;7.33;1.93;;;;;;;-145.18;100.00;60484.78;5036863;28;20017;-74
2023/03/15 07:41:51;;;;;;;6.90;1.73;;;;;;;-145.18;100.00;60484.78;5034156;28;20029;-73
2023/03/15 07:44:17;;;;;;;11.73;2.07;;;;;;;-145.18;100.00;60484.78;5034163;28;20119;-70
2023/03/15 07:46:42;;;;;;;7.93;1.73;;;;;;;-145.18;100.00;60484.78;5033862;28;20557;-71
2023/03/15 07:49:07;;;;;;;7.50;1.80;;;;;;;-145.18;100.00;60484.78;5034101;28;20029;-71
2023/03/15 07:51:33;;;;;;;7.87;2.10;;;;;;;-145.18;100.00;60484.78;5035121;28;20109;-71
2023/03/15 07:53:58;;;;;;;6.90;1.50;;;;;;;-145.18;100.00;60484.78;5033695;28;20389;-71
2023/03/15 07:56:23;;;;;;;8.03;2.03;;;;;;;-145.18;100.00;60484.78;5032306;28;20029;-71
2023/03/15 07:58:49;;;;;;;7.30;1.73;;;;;;;-145.18;100.00;60484.78;5033726;28;20079;-71
2023/03/15 08:01:14;;;;;;;10.17;1.70;;;;;;;-145.18;100.00;60484.78;5033918;28;20358;-71
2023/03/15 08:03:40;;;;;;;6.57;1.30;;;;;;;-145.18;100.00;60484.78;5033480;28;20491;-71
2023/03/15 08:06:06;;;;;;;9.63;1.40;;;;;;;-145.18;100.00;60484.78;5033862;28;20453;-71
2023/03/15 08:08:31;;;;;;;7.87;1.37;;;;;;;-145.18;100.00;60484.78;5034135;28;20025;-72
2023/03/15 08:10:58;;;;;;;4.57;1.30;;;;;;;-145.18;100.00;60484.78;5045761;28;20112;-71
2023/03/15 08:13:23;;;;;;;9.27;1.50;;;;;;;-145.18;100.00;60484.78;5034497;28;20025;-71
2023/03/15 08:15:49;;;;;;;8.53;1.60;;;;;;;-145.18;100.00;60484.78;5033835;28;20458;-70
2023/03/15 08:18:14;;;;;;;6.23;1.20;;;;;;;-145.18;100.00;60484.78;5035514;28;20104;-71
2023/03/15 08:20:40;;;;;;;6.50;1.30;;;;;;;-145.18;100.00;60484.78;5033761;28;20102;-71
2023/03/15 08:23:05;;;;;;;9.47;1.30;;;;;;;-145.18;100.00;60484.78;5034217;28;20049;-71
2023/03/15 08:25:31;;;;;;;7.43;1.20;;;;;;;-145.18;100.00;60484.78;5033944;28;20466;-72
2023/03/15 08:27:57;;;;;;;8.77;1.50;;;;;;;-145.18;100.00;60484.78;5038905;28;20033;-71
2023/03/15 08:30:23;;;;;;;7.00;1.80;;;;;;;-145.18;100.00;60484.78;5033384;28;20035;-72
2023/03/15 08:32:51;;;;;;;7.67;1.40;;;;;;;-145.18;100.00;60484.78;5038140;28;20395;-71
2023/03/15 08:35:17;;;;;;;7.27;1.30;;;;;;;-145.18;100.00;60484.78;5040232;28;20045;-71
2023/03/15 08:37:46;;;;;;;7.00;2.03;;;;;;;-145.18;100.00;60484.78;5052723;28;20083;-71
2023/03/15 08:40:17;;;;;;;6.20;1.33;;;;;;;-145.18;100.00;60484.78;5043816;28;20021;-71
2023/03/15 08:42:44;;;;;;;3.58;1.35;;;;;;;-145.18;100.00;60484.78;5034122;28;20026;-71
2023/03/15 08:45:10;;;;;;;6.47;1.50;;;;;;;-145.18;100.00;60484.78;5033641;28;20026;-71
2023/03/15 08:47:36;;;;;;;5.00;1.50;;;;;;;-145.18;100.00;60484.78;5033824;28;20021;-71
2023/03/15 08:50:04;;;;;;;6.87;1.13;;;;;;;-145.18;100.00;60484.78;5033554;28;20037;-71
2023/03/15 08:52:31;;;;;;;7.90;1.73;;;;;;;-145.18;100.00;60484.78;5036080;28;20029;-72
2023/03/15 08:54:57;;;;;;;7.00;1.50;;;;;;;-145.18;100.00;60484.78;5033971;28;20480;-71
2023/03/15 08:57:24;;;;;;;7.27;1.50;;;;;;;-145.18;100.00;60484.78;5039993;28;20020;-71
2023/03/15 08:59:50;;;;;;;5.77;1.20;;;;;;;-145.18;100.00;60484.78;5052530;28;20024;-72
2023/03/15 09:02:16;;;;;;;5.13;1.20;;;;;;;-145.18;100.00;60484.78;5052505;28;20036;-74
2023/03/15 09:04:41;;;;;;;8.47;1.47;;;;;;;-145.18;100.00;60484.78;5051412;28;20044;-71
2023/03/15 09:07:06;;;;;;;12.43;1.40;;;;;;;-145.18;100.00;60484.78;5051668;28;20108;-71
2023/03/15 09:09:32;;;;;;;11.37;1.73;;;;;;;-145.18;100.00;60484.78;5048651;28;20097;-71
2023/03/15 09:11:58;;;;;;;7.03;1.80;;;;;;;-145.18;100.00;60484.78;5040902;28;20021;-70
2023/03/15 09:14:23;;;;;;;8.60;1.33;;;;;;;-145.18;100.00;60484.78;5052147;28;20547;-71
2023/03/15 09:16:48;;;;;;;5.83;1.00;;;;;;;-145.18;100.00;60484.78;5053403;28;20438;-71
2023/03/15 09:19:14;;;;;;;9.00;1.50;;;;;;;-145.18;100.00;60484.78;5052752;28;20083;-71
2023/03/15 09:21:40;;;;;;;8.83;1.63;;;;;;;-145.18;100.00;60484.78;5053497;28;20036;-72
2023/03/15 09:24:05;;;;;;;7.47;1.30;;;;;;;-145.18;100.00;60484.78;5047466;28;20026;-74
2023/03/15 09:26:31;;;;;;;8.40;1.70;;;;;;;-145.18;100.00;60484.78;5059791;28;20009;-69
2023/03/15 09:28:56;;;;;;;9.30;1.73;;;;;;;-145.18;100.00;60484.78;5056178;28;20017;-70
2023/03/15 09:31:23;;;;;;;7.73;1.40;;;;;;;-145.18;100.00;60484.78;5056554;28;20013;-70
2023/03/15 09:33:49;;;;;;;6.77;1.70;;;;;;;-145.18;100.00;60484.78;5056793;28;20012;-69
2023/03/15 09:36:14;;;;;;;8.30;1.47;;;;;;;-145.18;100.00;60484.78;5056478;28;20045;-69
2023/03/15 09:38:42;;;;;;;5.93;1.23;;;;;;;-145.18;100.00;60484.78;5063385;28;20017;-68
2023/03/15 09:41:19;;;;;;;4.80;1.57;;;;;;;-145.18;100.00;60484.78;5058579;28;20034;-70
2023/03/15 09:44:05;;;;;;;10.33;2.17;;;;;;;-145.18;100.00;60484.78;5059439;28;20029;-70
2023/03/15 09:46:54;;;;;;;4.17;1.17;;;;;;;-145.18;100.00;60484.78;5052218;28;20095;-70
2023/03/15 09:49:44;;;;;;;5.53;1.30;;;;;;;-145.18;100.00;60484.78;5056602;28;20028;-69
2023/03/15 09:52:29;;;;;;;6.87;1.40;;;;;;;-145.18;100.00;60484.78;5056512;28;20022;-71
2023/03/15 09:54:59;;;;;;;11.93;1.53;;;;;;;-145.18;100.00;60484.78;5056071;28;20021;-70
2023/03/15 09:57:45;;;;;;;8.83;1.43;;;;;;;-145.18;100.00;60484.78;5056155;28;20436;-70
2023/03/15 10:00:17;;;;;;;4.83;1.50;;;;;;;-145.18;100.00;60484.78;5060150;28;20014;-71
2023/03/15 10:02:53;;;;;;;7.50;1.23;;;;;;;-145.18;100.00;60484.78;5055507;28;20028;-70
2023/03/15 10:05:24;;;;;;;6.03;1.47;;;;;;;-145.18;100.00;60484.78;5056154;28;20017;-71
2023/03/15 10:07:51;;;;;;;6.03;0.82;;;;;;;-145.18;100.00;60484.78;5056459;28;20068;-69
2023/03/15 10:10:19;;;;;;;6.77;1.37;;;;;;;-145.18;100.00;60484.78;5055920;28;20047;-69
2023/03/15 10:13:05;;;;;;;5.50;1.10;;;;;;;-145.18;100.00;60484.78;5054980;28;20033;-69
2023/03/15 10:15:53;;;;;;;6.97;1.20;;;;;;;-145.18;100.00;60484.78;5055334;28;20021;-69
2023/03/15 10:18:41;;;;;;;5.50;1.00;;;;;;;-145.18;100.00;60484.78;5055403;28;20025;-69
2023/03/15 10:21:15;;;;;;;5.20;1.20;;;;;;;-145.18;100.00;60484.78;5055478;28;20005;-71
2023/03/15 10:23:53;;;;;;;5.40;1.50;;;;;;;-145.18;100.00;60484.78;5056311;28;20029;-71
2023/03/15 10:26:23;;;;;;;4.13;1.13;;;;;;;-145.18;100.00;60484.78;5062722;28;20013;-72
2023/03/15 10:28:49;;;;;;;7.80;1.33;;;;;;;-145.18;100.00;60484.78;5078618;28;20020;-69
2023/03/15 10:31:20;;;;;;;7.53;1.50;;;;;;;-145.18;100.00;60484.78;5061578;28;20032;-70
2023/03/15 10:33:48;;;;;;;6.57;1.35;;;;;;;-145.18;100.00;60484.78;5060336;28;20021;-70
2023/03/15 10:36:17;;;;;;;5.33;1.17;;;;;;;-145.18;100.00;60484.78;5059648;28;20046;-70
2023/03/15 10:38:43;;;;;;;5.53;1.40;;;;;;;-145.18;100.00;60484.78;5059690;28;20017;-69
2023/03/15 10:41:13;;;;;;;7.47;1.10;;;;;;;-145.18;100.00;60484.78;5075478;28;20013;-70
2023/03/15 10:43:40;;;;;;;6.07;1.13;;;;;;;-145.18;100.00;60484.78;5077815;28;20021;-69
2023/03/15 10:46:21;;;;;;;10.93;1.73;;;;;;;-145.18;100.00;60484.78;5078419;28;20056;-71
2023/03/15 10:48:58;;;;;;;5.05;1.52;;;;;;;-145.18;100.00;60484.78;5078137;28;20036;-69
2023/03/15 10:51:32;;;;;;;5.13;1.20;;;;;;;-145.18;100.00;60484.78;5064567;28;20085;-69
2023/03/15 10:54:03;;;;;;;4.13;0.70;;;;;;;-145.18;100.00;60484.78;5067485;28;20020;-71
2023/03/15 10:56:34;;;;;;;2.88;0.80;;;;;;;-145.18;100.00;60484.78;5077854;28;20021;-70
2023/03/15 10:59:00;;;;;;;5.17;0.70;;;;;;;-145.18;100.00;60484.78;5077656;28;20017;-70
2023/03/15 11:01:33;;;;;;;2.53;0.80;;;;;;;-145.18;100.00;60484.78;5077767;28;20013;-69
2023/03/15 11:04:07;;;;;;;2.50;1.00;;;;;;;-145.18;100.00;60484.78;5075627;28;20013;-70
2023/03/15 11:06:56;;;;;;;3.10;1.20;;;;;;;-145.18;100.00;60484.78;5074183;28;20067;-70
2023/03/15 11:09:24;;;;;;;2.37;1.30;;;;;;;-145.18;100.00;60484.78;5056365;28;20044;-70
2023/03/15 11:12:00;;;;;;;2.87;1.50;;;;;;;-145.18;100.00;60484.78;5059001;28;20022;-70